עמוד ראשי
תמונות לווין תחזית 15-יוםאקליםתחזית ים סופות טרופיות ברק שדות תעופהשאלות נפוצות עלון אודות
מזג אוויר : אירופה אפריקה אמריקה הצפונית אמריקה הדרומית אסיה אוסטרליה-אוקיאניה אחר
שפות איש קשר

זלצבורג, אוסטריה

קו רוחב: 47-48N, קו אורך: 013-00E, גובה: 430 m


METAR: LOWS 250450Z 17006KT CAVOK 09/07 Q1012 NOSIG
short-TAF: מיושן (47934 שעות)
long-TAF: LOWS 241715Z 2418/2518 15005KT CAVOK TX21/2512Z TN07/2503Z BECMG 2508/2510 04006KT 9999 FEW050

זמן: 07:10 (05:10 UTC)

תצפית מזג אוויר נוכחית

הדו"ח נערך לפני 20 דקות, בשעה 04:50 UTC  
רוח 06 קשר מכיוון דרום
טמפרטורת 9°C
לחות 87%
לחץ 1012 hPa
ראות 10 km או יותר
ללא עננים שבסיסם נמוך מ 1500 רגל או קומולונימבוס

שינוי יחידות

תחזית

הדו"ח נערך לפני 11 שעות ו 49 דקות, בשעה 17:21 UTC  
תחזית בתוקף מ 24 ב 18 UTC עד 25 ב 18 UTC
רוח 05 קשר מכיוון דרום/דרום-מזרח
ראות 10 km או יותר
ללא עננים שבסיסם נמוך מ 1500 רגל או קומולונימבוס
יעשה מ
25 ב 08 UTC עד 25 ב 10 UTC
רוח 06 קשר מכיוון צפון-מזרח
ראות 10 km או יותר
מעט עננים בגובה 5000 ft
המידע באתר זה מותנה של תניית פטור
מזג אוויר : אירופה אפריקה אמריקה הצפונית אמריקה הדרומית אסיה אוסטרליה-אוקיאניה אחר
תמונות לווין תחזית 15-יוםאקליםתחזית ים סופות טרופיות ברק שדות תעופהשאלות נפוצות שפות איש קשר עלון אודות